Time;durP1;ratioP1;P1;durP2;ratioP2;P2;SDS_P1;SDS_P2;PMS_P1;PMS_P2;Temp;Humidity;BMP_temperature;BMP_pressure;BME280_temperature;BME280_humidity;BME280_pressure;Samples;Min_cycle;Max_cycle;Signal;HPM_P1;HPM_P2
2023/03/31 00:02:06;;;;;;;6.35;2.30;;;11.20;99.90;;;11.33;100.00;99648.47;4843654;29;20067;-83
2023/03/31 00:04:32;;;;;;;8.93;2.72;;;11.20;99.90;;;11.34;100.00;99641.91;4838248;29;20054;-84
2023/03/31 00:06:58;;;;;;;6.43;2.33;;;11.20;99.90;;;11.29;100.00;99644.56;4839030;29;20049;-82
2023/03/31 00:09:24;;;;;;;8.70;2.65;;;11.20;99.90;;;11.31;100.00;99636.94;4837981;29;20042;-83
2023/03/31 00:11:51;;;;;;;7.40;2.33;;;11.20;99.90;;;11.29;100.00;99632.84;4845247;29;20070;-82
2023/03/31 00:14:19;;;;;;;6.47;2.17;;;11.20;99.90;;;11.34;100.00;99633.72;4847479;29;20082;-83
2023/03/31 00:16:45;;;;;;;5.00;2.13;;;11.30;99.90;;;11.26;100.00;99631.41;4872951;29;20054;-80
2023/03/31 00:19:19;;;;;;;9.88;2.50;;;11.30;99.90;;;11.31;100.00;99630.69;4846259;29;20055;-83
2023/03/31 00:21:47;;;;;;;8.02;2.30;;;11.30;99.90;;;11.31;100.00;99623.31;4847504;29;20479;-84
2023/03/31 00:24:14;;;;;;;8.43;2.40;;;11.30;99.90;;;11.37;100.00;99625.03;4835200;29;20411;-81
2023/03/31 00:26:40;;;;;;;10.70;1.80;;;11.30;99.90;;;11.34;100.00;99613.81;4833007;29;20038;-82
2023/03/31 00:29:08;;;;;;;6.65;1.70;;;11.40;99.90;;;11.34;100.00;99617.34;4838354;29;20356;-85
2023/03/31 00:31:34;;;;;;;8.02;1.95;;;11.40;99.90;;;11.39;100.00;99621.22;4839870;29;20117;-85
2023/03/31 00:34:00;;;;;;;8.57;2.67;;;11.40;99.90;;;11.33;100.00;99609.41;4846924;29;20042;-87
2023/03/31 00:36:27;;;;;;;8.02;2.13;;;11.40;99.90;;;11.35;100.00;99607.25;4835158;29;20073;-83
2023/03/31 00:38:58;;;;;;;7.82;1.80;;;11.40;99.90;;;11.31;100.00;99608.84;4844304;29;20042;-86
2023/03/31 00:41:25;;;;;;;8.05;1.73;;;11.30;99.90;;;11.17;100.00;99603.69;4837755;29;20034;-85
2023/03/31 00:44:26;;;;;;;10.43;2.15;;;11.20;99.90;;;11.07;100.00;99585.22;4841724;29;20042;-82
2023/03/31 00:47:02;;;;;;;6.13;1.70;;;11.20;99.90;;;11.17;100.00;99605.59;4835225;29;20076;-82
2023/03/31 00:49:44;;;;;;;5.55;1.92;;;11.10;99.90;;;11.10;100.00;99607.63;4830622;29;20042;-85
2023/03/31 00:52:23;;;;;;;6.97;2.10;;;11.00;99.90;;;11.03;100.00;99607.81;4840576;29;20141;-83
2023/03/31 00:55:00;;;;;;;7.78;1.98;;;11.00;99.90;;;10.94;100.00;99599.19;4844150;29;20041;-82
2023/03/31 00:57:32;;;;;;;9.40;2.03;;;11.00;99.90;;;11.06;100.00;99583.56;4832389;29;20563;-85
2023/03/31 01:00:13;;;;;;;10.13;1.63;;;11.10;99.90;;;11.23;100.00;99590.94;4832727;29;20046;-86
2023/03/31 01:02:40;;;;;;;8.52;2.15;;;11.10;99.90;;;11.14;100.00;99578.75;4832415;29;20048;-83
2023/03/31 01:05:07;;;;;;;6.75;1.85;;;11.10;99.90;;;11.06;100.00;99582.75;4831004;29;20452;-83
2023/03/31 01:07:47;;;;;;;9.02;2.05;;;11.10;99.90;;;11.20;100.00;99577.81;4827030;29;20035;-86
2023/03/31 01:10:13;;;;;;;6.75;1.80;;;11.20;99.90;;;11.26;100.00;99579.53;4829453;29;20068;-83
2023/03/31 01:12:48;;;;;;;9.98;2.17;;;11.20;99.90;;;11.23;100.00;99555.47;4829467;29;20491;-82
2023/03/31 01:15:14;;;;;;;5.85;1.70;;;11.20;99.90;;;11.27;100.00;99547.59;4833264;29;20381;-84
2023/03/31 01:17:46;;;;;;;7.72;1.80;;;11.30;99.90;;;11.29;100.00;99554.47;4829266;29;20041;-83
2023/03/31 01:20:42;;;;;;;5.53;1.52;;;11.30;99.90;;;11.37;100.00;99548.56;4833846;29;20041;-84
2023/03/31 01:23:52;;;;;;;10.48;1.70;;;11.20;99.90;;;11.36;100.00;99541.47;4829701;29;20041;-83
2023/03/31 01:27:03;;;;;;;6.03;1.60;;;11.30;99.90;;;11.37;100.00;99537.66;4814365;29;20133;-85
2023/03/31 01:30:02;;;;;;;8.18;1.80;;;11.30;99.90;;;11.35;100.00;99545.28;4833579;29;20059;-84
2023/03/31 01:33:05;;;;;;;6.80;1.70;;;11.30;99.90;;;11.30;100.00;99533.47;4839615;29;20042;-82
2023/03/31 01:36:22;;;;;;;6.50;1.60;;;11.20;99.90;;;11.25;100.00;99530.63;4837162;29;20058;-84
2023/03/31 01:39:58;;;;;;;7.32;1.73;;;11.20;99.90;;;11.19;100.00;99513.38;4837170;29;20474;-83
2023/03/31 01:42:43;;;;;;;7.47;1.52;;;11.10;99.90;;;11.17;100.00;99518.25;4819030;29;20558;-85
2023/03/31 01:45:42;;;;;;;6.22;2.17;;;11.10;99.90;;;11.05;100.00;99512.88;4821568;29;20046;-86
2023/03/31 01:48:22;;;;;;;6.80;1.42;;;11.00;99.90;;;11.01;100.00;99509.78;4826549;29;20089;-85
2023/03/31 01:51:27;;;;;;;7.43;1.80;;;10.90;99.90;;;10.99;100.00;99495.56;4842537;29;20049;-84
2023/03/31 01:54:26;;;;;;;8.50;1.60;;;10.90;99.90;;;10.91;100.00;99504.19;4857857;29;20482;-84
2023/03/31 01:57:04;;;;;;;5.32;1.27;;;10.80;99.90;;;10.92;100.00;99497.66;4831498;29;20038;-85
2023/03/31 02:00:01;;;;;;;6.50;1.60;;;10.70;99.90;;;10.81;100.00;99485.72;4825168;29;20046;-84
2023/03/31 02:02:53;;;;;;;5.05;1.60;;;10.70;99.90;;;10.67;100.00;99468.00;4830569;29;20037;-84
2023/03/31 02:05:26;;;;;;;8.38;1.48;;;10.60;99.90;;;10.58;100.00;99492.13;4845421;29;20080;-85
2023/03/31 02:08:00;;;;;;;5.93;1.30;;;10.50;99.90;;;10.44;100.00;99450.69;4829436;29;20069;-84
2023/03/31 02:10:31;;;;;;;8.45;1.50;;;10.50;99.90;;;10.52;100.00;99471.28;4827622;29;20034;-83
2023/03/31 02:13:01;;;;;;;10.73;2.10;;;10.40;99.90;;;10.47;100.00;99472.03;4852036;29;20046;-84
2023/03/31 02:15:37;;;;;;;6.47;1.50;;;10.30;99.90;;;10.39;100.00;99467.78;4834316;29;20031;-84
2023/03/31 02:18:10;;;;;;;6.30;1.45;;;10.30;99.90;;;10.34;100.00;99460.34;4829085;29;20098;-83
2023/03/31 02:20:45;;;;;;;6.95;1.88;;;10.20;99.90;;;10.14;100.00;99429.97;4837481;29;20472;-82
2023/03/31 02:23:14;;;;;;;7.88;1.67;;;10.20;99.90;;;10.25;100.00;99450.91;4829931;29;20066;-83
2023/03/31 02:25:56;;;;;;;7.13;1.85;;;10.20;99.90;;;10.25;100.00;99455.50;4836576;29;20478;-83
2023/03/31 02:28:26;;;;;;;6.15;1.50;;;10.10;99.90;;;10.19;100.00;99454.56;4831163;29;20387;-84
2023/03/31 02:31:04;;;;;;;6.75;1.70;;;10.00;99.90;;;10.12;100.00;99454.75;4847378;29;20517;-82
2023/03/31 02:33:30;;;;;;;6.20;1.60;;;10.00;99.90;;;9.97;100.00;99447.09;4849026;29;20033;-83
2023/03/31 02:36:00;;;;;;;6.32;2.00;;;9.90;99.90;;;9.89;100.00;99439.28;4874165;29;20130;-82
2023/03/31 02:38:26;;;;;;;6.80;1.77;;;9.80;99.90;;;9.93;100.00;99454.91;4871095;29;20034;-82
2023/03/31 02:40:53;;;;;;;8.35;1.95;;;9.80;99.90;;;9.89;100.00;99444.75;4847672;29;20049;-80
2023/03/31 02:43:19;;;;;;;6.22;2.00;;;9.80;99.90;;;9.79;100.00;99429.84;4862480;29;20172;-83
2023/03/31 02:45:48;;;;;;;6.45;1.70;;;9.80;99.90;;;9.99;100.00;99442.25;4862541;29;20037;-80
2023/03/31 02:48:40;;;;;;;8.43;2.30;;;9.90;99.90;;;10.15;100.00;99435.19;4867712;29;20053;-81
2023/03/31 02:51:31;;;;;;;7.13;2.20;;;10.00;99.90;;;10.06;100.00;99409.38;4863542;29;20046;-81
2023/03/31 02:54:32;;;;;;;7.75;1.85;;;10.00;99.90;;;10.03;100.00;99398.97;4850255;29;20398;-82
2023/03/31 02:57:42;;;;;;;8.55;1.98;;;10.10;99.90;;;10.30;100.00;99410.09;4861798;29;20474;-82
2023/03/31 03:00:40;;;;;;;5.65;1.80;;;10.10;99.90;;;10.27;100.00;99420.66;4869105;29;20464;-82
2023/03/31 03:03:50;;;;;;;5.88;1.65;;;10.10;99.90;;;10.24;100.00;99412.97;4866901;29;20505;-81
2023/03/31 03:06:41;;;;;;;9.27;1.98;;;10.00;99.90;;;10.27;100.00;99416.03;4864470;29;20045;-82
2023/03/31 03:10:01;;;;;;;6.35;2.00;;;10.00;99.90;;;10.15;100.00;99405.19;4872889;29;20045;-82
2023/03/31 03:13:06;;;;;;;7.95;1.63;;;10.10;99.90;;;10.32;100.00;99399.78;4859072;29;20061;-83
2023/03/31 03:15:48;;;;;;;6.20;1.70;;;10.10;99.90;;;10.20;100.00;99397.13;4853610;29;20033;-84
2023/03/31 03:18:14;;;;;;;6.13;1.33;;;10.20;99.90;;;10.20;100.00;99388.09;4860494;29;20164;-84
2023/03/31 03:20:48;;;;;;;6.78;2.10;;;10.10;99.90;;;10.13;100.00;99391.00;4884579;29;20047;-83
2023/03/31 03:23:15;;;;;;;5.55;1.50;;;10.10;99.90;;;10.10;100.00;99374.28;4867761;29;20053;-82
2023/03/31 03:25:41;;;;;;;3.78;1.48;;;10.00;99.90;;;10.19;100.00;99386.44;4867015;29;20081;-84
2023/03/31 03:28:07;;;;;;;7.82;1.58;;;10.00;99.90;;;10.28;100.00;99379.53;4861425;29;20045;-82
2023/03/31 03:30:33;;;;;;;5.85;1.63;;;10.00;99.90;;;10.15;100.00;99360.75;4882563;29;20049;-82
2023/03/31 03:32:59;;;;;;;5.50;1.40;;;10.00;99.90;;;10.27;100.00;99372.44;4872876;29;20041;-83
2023/03/31 03:35:25;;;;;;;6.22;1.33;;;10.00;99.90;;;10.24;100.00;99364.75;4874210;29;20048;-85
2023/03/31 03:37:50;;;;;;;4.50;1.13;;;10.00;99.90;;;10.01;100.00;99352.06;4882423;29;20068;-84
2023/03/31 03:40:17;;;;;;;8.23;1.50;;;10.00;99.90;;;10.15;100.00;99360.75;4858087;29;20049;-84
2023/03/31 03:42:42;;;;;;;6.72;1.17;;;10.00;99.90;;;10.06;100.00;99346.69;4871733;29;20045;-83
2023/03/31 03:45:09;;;;;;;4.43;1.40;;;10.00;99.90;;;10.15;100.00;99339.78;4881949;29;20037;-84
2023/03/31 03:47:35;;;;;;;6.95;1.20;;;10.00;99.90;;;10.18;100.00;99343.91;4866953;29;20565;-86
2023/03/31 03:50:02;;;;;;;6.05;1.30;;;9.90;99.90;;;10.15;100.00;99326.16;4887465;29;20049;-82
2023/03/31 03:52:28;;;;;;;7.30;1.33;;;9.90;99.90;;;10.02;100.00;99319.13;4883798;29;20036;-83
2023/03/31 03:54:54;;;;;;;8.75;1.52;;;10.00;99.90;;;10.03;100.00;99322.66;4872163;29;20042;-82
2023/03/31 03:57:20;;;;;;;5.45;1.20;;;9.90;99.90;;;10.06;100.00;99319.44;4847033;29;20033;-81
2023/03/31 03:59:46;;;;;;;4.10;1.20;;;9.90;99.90;;;10.03;100.00;99315.34;4875651;29;20124;-84
2023/03/31 04:02:12;;;;;;;7.10;1.33;;;9.90;99.90;;;10.03;100.00;99303.59;4831967;29;20041;-83
2023/03/31 04:04:38;;;;;;;2.25;1.00;;;9.90;99.90;;;10.00;100.00;99304.94;4860208;29;20053;-81
2023/03/31 04:07:04;;;;;;;5.65;1.38;;;9.90;99.90;;;9.93;100.00;99291.47;4860225;29;20033;-82
2023/03/31 04:09:30;;;;;;;6.70;1.50;;;9.80;99.90;;;9.90;100.00;99288.38;4836392;29;20402;-82
2023/03/31 04:11:56;;;;;;;4.82;1.35;;;9.80;99.90;;;9.79;100.00;99290.94;4866155;29;20445;-83
2023/03/31 04:14:21;;;;;;;6.97;1.42;;;9.70;99.90;;;9.97;100.00;99290.97;4866973;29;20056;-81
2023/03/31 04:16:47;;;;;;;6.38;1.58;;;9.70;99.90;;;9.94;100.00;99278.66;4862379;29;20421;-81
2023/03/31 04:19:17;;;;;;;6.25;1.20;;;9.80;99.90;;;9.99;100.00;99277.91;4865270;29;20470;-82
2023/03/31 04:21:44;;;;;;;8.73;1.23;;;9.80;99.90;;;10.02;100.00;99264.63;4875117;29;20068;-81
2023/03/31 04:24:15;;;;;;;5.13;1.10;;;9.80;99.90;;;10.07;100.00;99264.72;4871653;29;20044;-83
2023/03/31 04:26:43;;;;;;;6.88;1.50;;;9.90;99.90;;;10.08;100.00;99266.38;4862415;29;20052;-83
2023/03/31 04:29:12;;;;;;;6.90;1.50;;;9.90;99.90;;;10.06;100.00;99252.16;4867677;29;20037;-81
2023/03/31 04:31:41;;;;;;;7.22;1.50;;;9.90;99.90;;;10.14;100.00;99253.66;4863328;29;20052;-80
2023/03/31 04:34:12;;;;;;;7.30;1.50;;;9.90;99.90;;;9.89;100.00;99219.47;4868032;29;20109;-82
2023/03/31 04:36:47;;;;;;;6.20;1.50;;;10.00;99.90;;;10.07;100.00;99214.84;4866782;29;20434;-84
2023/03/31 04:39:25;;;;;;;5.68;1.15;;;9.90;99.90;;;10.08;100.00;99221.97;4871687;29;20044;-82
2023/03/31 04:41:52;;;;;;;8.85;1.40;;;9.90;99.90;;;10.26;100.00;99217.31;4875727;29;20047;-82
2023/03/31 04:44:18;;;;;;;5.77;1.30;;;9.90;99.90;;;10.00;100.00;99182.31;4870569;29;20057;-80
2023/03/31 04:46:44;;;;;;;5.97;1.33;;;9.80;99.90;;;10.06;100.00;99203.13;4874561;29;20296;-80
2023/03/31 04:49:09;;;;;;;5.82;1.30;;;9.80;99.90;;;9.92;100.00;99213.53;4861358;29;20049;-84
2023/03/31 04:51:35;;;;;;;8.02;1.63;;;9.80;99.90;;;9.87;100.00;99205.28;4848642;29;20045;-80
2023/03/31 04:54:01;;;;;;;5.75;1.30;;;9.70;99.90;;;9.81;100.00;99195.34;4875792;29;20033;-80
2023/03/31 04:56:27;;;;;;;5.28;1.50;;;9.70;99.90;;;9.85;100.00;99185.63;4853518;29;20117;-81
2023/03/31 04:58:53;;;;;;;7.65;1.40;;;9.60;99.90;;;9.83;100.00;99192.41;4862608;29;20124;-81
2023/03/31 05:01:18;;;;;;;9.10;2.15;;;9.60;99.90;;;9.71;100.00;99165.25;4846496;29;20041;-81
2023/03/31 05:03:46;;;;;;;5.78;1.40;;;9.60;99.90;;;9.72;100.00;99173.16;4836210;29;20037;-79
2023/03/31 05:06:14;;;;;;;8.45;1.70;;;9.70;99.90;;;9.98;100.00;99161.84;4861713;29;20119;-83
2023/03/31 05:08:40;;;;;;;10.90;2.00;;;9.70;99.90;;;9.97;100.00;99152.88;4865736;29;20037;-81
2023/03/31 05:11:06;;;;;;;9.15;1.70;;;9.70;99.90;;;9.98;100.00;99157.22;4859591;29;20050;-81
2023/03/31 05:13:32;;;;;;;5.53;1.35;;;9.80;99.90;;;10.03;100.00;99159.19;4865015;29;20094;-83
2023/03/31 05:15:57;;;;;;;8.75;1.88;;;9.80;99.90;;;10.03;100.00;99143.69;4868707;29;20565;-81
2023/03/31 05:18:23;;;;;;;9.65;1.75;;;9.90;99.90;;;10.12;100.00;99146.81;4845480;29;20455;-81
2023/03/31 05:20:49;;;;;;;6.88;1.48;;;9.90;99.90;;;10.12;100.00;99144.09;4848767;29;20044;-81
2023/03/31 05:23:14;;;;;;;6.78;1.35;;;9.90;99.90;;;10.05;100.00;99124.34;4860130;29;20090;-81
2023/03/31 05:25:41;;;;;;;8.55;1.63;;;9.90;99.90;;;10.17;100.00;99151.50;4863202;29;20141;-81
2023/03/31 05:28:08;;;;;;;5.55;1.70;;;10.00;99.90;;;10.25;100.00;99153.81;4861586;29;20038;-80
2023/03/31 05:30:34;;;;;;;6.93;1.40;;;10.00;99.90;;;10.11;100.00;99141.59;4852037;29;20041;-85
2023/03/31 05:33:00;;;;;;;6.05;1.63;;;10.00;99.90;;;10.21;100.00;99128.94;4861786;29;20045;-85
2023/03/31 05:35:26;;;;;;;6.55;2.50;;;10.00;99.90;;;10.26;100.00;99149.16;4869870;29;20504;-82
2023/03/31 05:37:52;;;;;;;9.13;1.75;;;10.00;99.90;;;10.10;100.00;99138.06;4854069;29;20041;-81
2023/03/31 05:40:18;;;;;;;7.30;2.58;;;10.00;99.90;;;10.05;100.00;99135.25;4862767;29;20045;-84
2023/03/31 05:42:44;;;;;;;4.90;1.58;;;9.90;99.90;;;10.06;100.00;99143.19;4873784;29;20033;-81
2023/03/31 05:45:10;;;;;;;8.50;1.35;;;9.90;99.90;;;10.15;100.00;99159.94;4863294;29;20037;-83
2023/03/31 05:47:35;;;;;;;4.57;1.73;;;9.90;99.90;;;9.94;100.00;99153.34;4876491;29;20124;-81
2023/03/31 05:50:06;;;;;;;4.32;1.33;;;9.90;99.90;;;9.86;100.00;99146.44;4867428;29;20474;-80
2023/03/31 05:52:32;;;;;;;4.03;1.20;;;9.90;99.90;;;9.92;100.00;99148.16;4867749;29;20041;-81
2023/03/31 05:54:58;;;;;;;5.97;1.13;;;9.90;99.90;;;9.77;100.00;99120.66;4874224;29;20115;-82
2023/03/31 05:57:24;;;;;;;7.05;1.40;;;9.90;99.90;;;9.90;100.00;99142.13;4877918;29;20120;-83
2023/03/31 05:59:49;;;;;;;5.57;1.38;;;9.80;99.90;;;9.91;100.00;99140.22;4885016;29;20052;-82
2023/03/31 06:02:15;;;;;;;4.63;1.40;;;9.90;99.90;;;9.92;100.00;99141.84;4886452;29;20425;-82
2023/03/31 06:04:43;;;;;;;7.28;1.60;;;9.80;99.90;;;10.00;100.00;99125.13;4883452;29;20104;-83
2023/03/31 06:07:09;;;;;;;7.30;1.80;;;9.80;99.90;;;10.03;100.00;99130.06;4852217;29;20558;-82
2023/03/31 06:09:35;;;;;;;6.50;1.50;;;9.80;99.90;;;10.06;100.00;99123.25;4857215;29;20093;-80
2023/03/31 06:12:00;;;;;;;7.13;1.60;;;9.80;99.90;;;10.07;100.00;99117.56;4871400;29;20140;-82
2023/03/31 06:14:27;;;;;;;8.38;1.63;;;9.80;99.90;;;9.90;100.00;99112.16;4873867;29;20132;-80
2023/03/31 06:16:53;;;;;;;7.25;1.65;;;9.90;99.90;;;10.02;100.00;99113.94;4853135;29;20124;-81
2023/03/31 06:19:18;;;;;;;3.33;1.10;;;9.80;99.90;;;10.01;100.00;99113.13;4864171;29;20047;-80
2023/03/31 06:21:44;;;;;;;7.55;1.73;;;9.80;99.90;;;10.19;100.00;99112.03;4848162;29;20478;-81
2023/03/31 06:24:10;;;;;;;5.97;1.40;;;9.90;99.90;;;10.23;100.00;99115.06;4856805;29;20477;-80
2023/03/31 06:26:35;;;;;;;7.28;1.25;;;9.90;99.90;;;10.20;100.00;99105.50;4837503;29;20052;-81
2023/03/31 06:29:01;;;;;;;4.93;1.63;;;9.90;99.90;;;10.42;100.00;99088.34;4863156;29;20038;-80
2023/03/31 06:31:27;;;;;;;5.10;1.20;;;10.00;99.90;;;10.36;100.00;99089.34;4864634;29;20060;-82
2023/03/31 06:33:53;;;;;;;5.75;1.40;;;10.00;99.90;;;10.41;100.00;99086.72;4867256;29;20094;-81
2023/03/31 06:36:21;;;;;;;5.15;1.52;;;10.10;99.90;;;10.45;100.00;99098.75;4852281;29;20371;-78
2023/03/31 06:38:48;;;;;;;6.15;1.60;;;10.10;99.90;;;10.39;100.00;99096.19;4846921;29;20033;-81
2023/03/31 06:41:17;;;;;;;7.20;1.33;;;10.10;99.90;;;10.39;100.00;99090.72;4868486;29;20042;-82
2023/03/31 06:43:43;;;;;;;9.82;1.50;;;10.20;99.90;;;10.27;100.00;99083.50;4867634;29;20037;-82
2023/03/31 06:46:10;;;;;;;6.00;1.40;;;10.20;99.90;;;10.34;100.00;99086.88;4872285;29;20401;-83
2023/03/31 06:48:36;;;;;;;6.93;1.65;;;10.20;99.90;;;10.51;100.00;99086.00;4869583;29;20501;-81
2023/03/31 06:51:05;;;;;;;9.35;1.63;;;10.20;99.90;;;10.40;100.00;99093.25;4867677;29;20057;-82
2023/03/31 06:53:31;;;;;;;6.78;1.50;;;10.20;99.90;;;10.31;100.00;99081.91;4868283;29;20105;-81
2023/03/31 06:55:57;;;;;;;5.10;1.30;;;10.20;99.90;;;10.34;100.00;99081.41;4839181;29;20052;-82
2023/03/31 06:58:24;;;;;;;5.05;1.10;;;10.10;99.90;;;10.21;100.00;99074.44;4877034;29;20044;-81
2023/03/31 07:00:51;;;;;;;6.70;1.40;;;10.10;99.90;;;10.15;100.00;99080.91;4883832;29;20500;-81
2023/03/31 07:03:21;;;;;;;6.78;1.65;;;10.10;99.90;;;10.25;100.00;99052.97;4864176;29;20558;-80
2023/03/31 07:05:51;;;;;;;8.52;1.38;;;10.10;99.90;;;10.00;100.00;99067.91;4868612;29;20056;-81
2023/03/31 07:08:18;;;;;;;6.85;1.42;;;10.20;99.90;;;10.05;100.00;99065.22;4870781;29;20070;-80
2023/03/31 07:10:48;;;;;;;6.38;1.55;;;10.10;99.90;;;10.09;100.00;99054.66;4847297;29;20070;-85
2023/03/31 07:13:17;;;;;;;7.38;1.50;;;10.00;99.90;;;9.81;100.00;99058.34;4865651;29;20048;-82
2023/03/31 07:15:47;;;;;;;10.82;1.77;;;10.00;99.90;;;9.82;100.00;99055.41;4868093;29;20044;-83
2023/03/31 07:18:14;;;;;;;7.65;2.05;;;10.00;99.90;;;9.82;100.00;99047.22;4869929;29;20030;-83
2023/03/31 07:20:48;;;;;;;5.78;1.88;;;10.00;99.90;;;9.83;100.00;99046.16;4865662;29;20143;-83
2023/03/31 07:23:14;;;;;;;7.03;1.60;;;9.90;99.90;;;9.80;100.00;99033.00;4856209;29;20120;-81
2023/03/31 07:25:40;;;;;;;6.88;1.75;;;9.90;99.90;;;9.82;100.00;99028.16;4864395;29;20121;-81
2023/03/31 07:28:06;;;;;;;5.05;1.55;;;9.90;99.90;;;9.83;100.00;99035.25;4862535;29;20053;-81
2023/03/31 07:30:32;;;;;;;8.50;1.73;;;9.90;99.90;;;9.85;100.00;99033.09;4838563;29;20053;-83
2023/03/31 07:32:59;;;;;;;9.18;1.73;;;9.90;99.90;;;9.87;100.00;99041.00;4865395;29;20097;-81
2023/03/31 07:35:25;;;;;;;7.30;1.77;;;9.90;99.90;;;9.89;100.00;99023.34;4868220;29;20042;-81
2023/03/31 07:37:51;;;;;;;5.18;1.60;;;10.00;99.90;;;10.00;100.00;99034.38;4875323;29;20466;-82
2023/03/31 07:40:23;;;;;;;5.18;1.52;;;10.00;99.90;;;9.97;100.00;99029.44;4866010;29;20041;-82
2023/03/31 07:42:51;;;;;;;8.07;1.80;;;10.00;99.90;;;10.03;100.00;99007.44;4859789;29;20037;-83
2023/03/31 07:45:19;;;;;;;6.72;1.45;;;10.00;99.90;;;10.06;100.00;99011.56;4876708;29;20041;-82
2023/03/31 07:47:46;;;;;;;8.02;1.73;;;10.10;99.90;;;10.22;100.00;99018.03;4870479;29;20505;-84
2023/03/31 07:50:14;;;;;;;7.18;1.40;;;10.20;99.90;;;10.43;100.00;99010.94;4857022;29;20049;-85
2023/03/31 07:52:40;;;;;;;8.82;1.85;;;10.30;99.90;;;10.30;100.00;99014.00;4887282;29;20041;-85
2023/03/31 07:55:08;;;;;;;8.25;1.60;;;10.40;99.90;;;10.33;100.00;99008.06;4878034;29;20049;-83
2023/03/31 07:57:35;;;;;;;9.55;1.70;;;10.40;99.90;;;10.46;100.00;98999.53;4872624;29;20040;-82
2023/03/31 08:00:06;;;;;;;6.57;1.45;;;10.50;99.90;;;10.42;100.00;98997.56;4866120;29;20383;-81
2023/03/31 08:02:41;;;;;;;6.55;2.03;;;10.50;99.90;;;10.47;100.00;98990.25;4872834;29;20041;-80
2023/03/31 08:05:08;;;;;;;7.35;1.58;;;10.60;99.90;;;10.64;100.00;98989.34;4864263;29;20049;-80
2023/03/31 08:07:36;;;;;;;6.77;1.70;;;10.70;99.90;;;10.75;100.00;98976.63;4864353;29;20081;-80
2023/03/31 08:10:10;;;;;;;4.05;1.40;;;10.90;99.90;;;11.02;100.00;98979.31;4866319;29;20037;-80
2023/03/31 08:12:35;;;;;;;4.18;1.40;;;11.10;99.90;;;11.04;100.00;98979.06;4868591;29;20034;-79
2023/03/31 08:15:03;;;;;;;5.55;1.50;;;11.20;99.90;;;11.08;100.00;98975.53;4854126;29;20056;-79
2023/03/31 08:17:28;;;;;;;6.60;1.88;;;11.20;99.90;;;11.03;100.00;98963.75;4868955;29;20044;-80
2023/03/31 08:19:54;;;;;;;9.30;1.60;;;11.10;99.90;;;10.98;100.00;98961.81;4863299;29;20039;-80
2023/03/31 08:22:22;;;;;;;4.07;1.40;;;11.10;99.90;;;11.04;100.00;98955.31;4865641;29;20053;-79
2023/03/31 08:24:47;;;;;;;6.95;1.98;;;11.10;99.90;;;10.88;100.00;98956.28;4873979;29;20045;-78
2023/03/31 08:27:13;;;;;;;6.78;1.80;;;11.00;99.90;;;11.03;100.00;98958.31;4886386;29;20544;-79
2023/03/31 08:29:39;;;;;;;4.72;1.80;;;11.00;99.90;;;11.05;100.00;98948.75;4876655;29;20432;-79
2023/03/31 08:32:05;;;;;;;9.55;2.30;;;11.00;99.90;;;11.03;100.00;98931.81;4885280;29;20453;-78
2023/03/31 08:34:32;;;;;;;6.78;2.08;;;11.00;99.90;;;10.94;100.00;98923.31;4878881;29;20439;-78
2023/03/31 08:36:58;;;;;;;4.50;1.52;;;11.10;99.90;;;11.21;100.00;98921.59;4865789;29;20478;-79
2023/03/31 08:39:24;;;;;;;5.68;1.55;;;11.30;99.90;;;11.39;100.00;98906.66;4862078;29;20056;-78
2023/03/31 08:42:28;;;;;;;6.38;2.10;;;11.40;99.90;;;11.60;100.00;98913.03;4861907;29;20110;-80
2023/03/31 08:45:10;;;;;;;4.80;1.63;;;11.50;99.90;;;11.35;100.00;98889.19;4872395;29;20494;-78
2023/03/31 08:47:38;;;;;;;5.30;1.70;;;11.60;99.90;;;11.35;100.00;98911.81;4882812;29;20044;-77
2023/03/31 08:50:20;;;;;;;4.82;1.80;;;11.60;99.90;;;11.58;100.00;98908.97;4865818;29;20124;-78
2023/03/31 08:53:00;;;;;;;4.03;1.60;;;11.60;99.90;;;11.60;100.00;98895.84;4861450;29;20042;-78
2023/03/31 08:55:38;;;;;;;6.43;1.48;;;11.60;99.90;;;11.54;100.00;98884.06;4862564;29;20038;-79
2023/03/31 08:58:34;;;;;;;5.40;1.50;;;11.60;99.90;;;11.74;100.00;98882.53;4865169;29;20164;-80
2023/03/31 09:01:33;;;;;;;2.88;1.30;;;11.70;99.90;;;11.93;100.00;98882.84;4861492;29;20047;-78
2023/03/31 09:04:42;;;;;;;3.58;1.33;;;11.90;99.90;;;12.11;100.00;98888.94;4829692;29;20132;-77
2023/03/31 09:07:42;;;;;;;5.75;1.38;;;12.00;99.90;;;12.32;100.00;98885.13;4865702;29;20055;-79
2023/03/31 09:10:52;;;;;;;3.70;1.10;;;12.20;99.90;;;11.93;100.00;98883.69;4878573;29;20045;-77
2023/03/31 09:14:03;;;;;;;4.80;1.00;;;12.10;99.90;;;11.82;100.00;98879.25;4882996;29;20052;-77
2023/03/31 09:17:00;;;;;;;3.45;1.10;;;11.90;99.90;;;11.60;100.00;98885.72;4845356;29;20030;-78
2023/03/31 09:19:37;;;;;;;4.30;1.17;;;11.70;99.90;;;11.18;100.00;98868.34;4878183;29;20045;-78
2023/03/31 09:22:14;;;;;;;4.45;1.13;;;11.40;99.90;;;11.05;100.00;98882.47;4884124;29;20038;-77
2023/03/31 09:24:56;;;;;;;4.15;1.20;;;11.20;99.90;;;10.92;100.00;98891.91;4881074;29;20041;-78
2023/03/31 09:27:27;;;;;;;3.75;1.42;;;10.90;99.90;;;10.65;100.00;98896.34;4885219;29;20037;-78
2023/03/31 09:30:09;;;;;;;5.38;1.25;;;10.70;99.90;;;10.60;100.00;98890.03;4879524;29;20499;-78
2023/03/31 09:32:38;;;;;;;3.47;1.30;;;10.70;99.90;;;10.54;100.00;98880.16;4869114;29;20371;-78
2023/03/31 09:35:27;;;;;;;4.43;1.35;;;10.60;99.90;;;10.55;100.00;98879.91;4881150;29;20316;-78
2023/03/31 09:37:53;;;;;;;6.95;1.33;;;10.50;99.90;;;10.43;100.00;98874.63;4868255;29;20120;-78
2023/03/31 09:40:25;;;;;;;3.78;1.00;;;10.50;99.90;;;10.38;100.00;98865.53;4884304;29;20108;-77
2023/03/31 09:42:58;;;;;;;3.33;1.00;;;10.50;99.90;;;10.35;100.00;98864.97;4861216;29;20067;-78
2023/03/31 09:45:24;;;;;;;4.45;1.08;;;10.40;99.90;;;10.32;100.00;98854.59;4861038;29;20454;-78
2023/03/31 09:47:54;;;;;;;3.13;1.10;;;10.40;99.90;;;10.32;100.00;98861.94;4880867;29;20045;-77
2023/03/31 09:50:22;;;;;;;4.53;1.38;;;;;;;10.33;100.00;98863.59;4865877;29;20105;-77
2023/03/31 09:52:52;;;;;;;2.20;0.90;;;10.30;99.90;;;10.26;100.00;98858.38;4844779;29;20049;-78
2023/03/31 09:55:23;;;;;;;3.20;1.10;;;10.20;99.90;;;10.16;100.00;98858.25;4865140;29;20042;-79
2023/03/31 09:57:49;;;;;;;4.18;1.10;;;10.20;99.90;;;10.18;100.00;98862.38;4871544;29;20025;-78
2023/03/31 10:00:21;;;;;;;5.35;1.13;;;10.20;99.90;;;10.19;100.00;98850.41;4869273;29;20056;-79
2023/03/31 10:02:52;;;;;;;2.88;1.02;;;10.20;99.90;;;10.16;100.00;98845.47;4873129;29;20060;-79
2023/03/31 10:05:36;;;;;;;3.70;1.60;;;10.10;99.90;;;10.16;100.00;98837.28;4892207;29;20044;-80
2023/03/31 10:08:19;;;;;;;4.65;1.65;;;10.10;99.90;;;10.24;100.00;98843.34;4885194;29;20116;-79
2023/03/31 10:11:01;;;;;;;7.68;1.60;;;10.20;99.90;;;10.23;100.00;98826.19;4849643;29;20477;-79
2023/03/31 10:14:12;;;;;;;5.25;1.60;;;10.20;99.90;;;10.27;100.00;98823.75;4845801;29;20058;-80
2023/03/31 10:16:56;;;;;;;5.18;1.52;;;10.30;99.90;;;10.26;100.00;98828.38;4859972;29;20052;-80
2023/03/31 10:19:33;;;;;;;7.82;1.80;;;10.30;99.90;;;10.24;100.00;98832.44;4876021;29;20045;-80
2023/03/31 10:22:04;;;;;;;4.80;1.38;;;10.30;99.90;;;10.33;100.00;98826.25;4860999;29;20047;-80
2023/03/31 10:24:43;;;;;;;3.42;1.33;;;10.30;99.90;;;10.31;100.00;98824.88;4864316;29;20053;-78
2023/03/31 10:27:23;;;;;;;7.00;1.80;;;10.30;99.90;;;10.30;100.00;98820.50;4859562;29;20041;-78
2023/03/31 10:29:56;;;;;;;3.35;1.20;;;10.30;99.90;;;10.29;100.00;98816.97;4859863;29;20045;-77
2023/03/31 10:32:29;;;;;;;4.82;1.60;;;10.30;99.90;;;10.31;100.00;98813.97;4869106;29;20056;-79
2023/03/31 10:34:57;;;;;;;7.70;1.40;;;10.30;99.90;;;10.34;100.00;98824.34;4844255;29;20054;-77
2023/03/31 10:37:27;;;;;;;4.97;1.30;;;10.30;99.90;;;10.31;100.00;98813.97;4866079;29;20029;-77
2023/03/31 10:40:13;;;;;;;3.97;1.10;;;10.30;99.90;;;10.38;100.00;98824.66;4860794;29;20040;-78
2023/03/31 10:42:39;;;;;;;4.80;1.15;;;10.30;99.90;;;10.16;100.00;98806.47;4859651;29;20052;-78